createdAt,value
2022-08-03T12:30:31.933Z,83.12
2022-08-03T12:31:31.617Z,81.91
2022-08-03T12:32:31.674Z,79.76
2022-08-03T12:33:31.674Z,79.50
2022-08-03T12:34:31.722Z,79.95
2022-08-03T12:35:31.649Z,83.79
2022-08-03T12:36:31.681Z,79.41
2022-08-03T12:37:32.060Z,86.27
2022-08-03T12:38:31.623Z,85.96
2022-08-03T12:39:31.662Z,80.50
2022-08-03T12:40:31.942Z,80.55
2022-08-03T12:41:31.776Z,80.35
2022-08-03T12:42:31.703Z,79.64
2022-08-03T12:43:37.605Z,78.01
2022-08-03T12:44:31.647Z,79.05
2022-08-03T12:45:31.727Z,83.10
2022-08-03T12:46:31.684Z,82.94
2022-08-03T12:47:31.754Z,80.67
2022-08-03T12:48:31.786Z,82.75
2022-08-03T12:49:31.717Z,84.04
2022-08-03T12:50:31.866Z,81.45
2022-08-03T12:51:32.258Z,84.19
2022-08-03T12:52:31.668Z,82.01
2022-08-03T12:53:31.761Z,80.95
2022-08-03T12:54:31.663Z,86.58
2022-08-03T12:55:31.743Z,80.04
2022-08-03T12:56:31.697Z,80.00
2022-08-03T12:57:31.745Z,80.65
2022-08-03T12:58:31.707Z,82.35
2022-08-03T12:59:35.030Z,82.74
2022-08-03T13:00:31.690Z,80.62
2022-08-03T13:01:34.858Z,79.37
2022-08-03T13:02:34.919Z,78.83
2022-08-03T13:03:38.914Z,78.58
2022-08-03T13:04:34.725Z,87.71
2022-08-03T13:05:34.732Z,82.54
2022-08-03T13:06:34.700Z,79.63
2022-08-03T13:07:34.756Z,77.95
2022-08-03T13:08:34.746Z,78.22
2022-08-03T13:09:34.707Z,80.79
2022-08-03T13:10:34.727Z,80.02
2022-08-03T13:11:53.556Z,77.78
2022-08-03T13:12:34.738Z,76.96
2022-08-03T13:13:34.779Z,78.79
2022-08-03T13:14:34.752Z,78.32
2022-08-03T13:15:38.751Z,78.94
2022-08-03T13:16:34.797Z,77.93
2022-08-03T13:17:34.762Z,76.60
2022-08-03T13:18:34.825Z,77.39
2022-08-03T13:19:34.771Z,82.88
2022-08-03T13:20:34.771Z,78.76
2022-08-03T13:21:34.822Z,77.21
2022-08-03T13:22:34.776Z,82.71
2022-08-03T13:23:34.875Z,76.12
2022-08-03T13:24:34.839Z,76.53
2022-08-03T13:25:34.748Z,74.99
2022-08-03T13:26:34.782Z,75.59
2022-08-03T13:28:03.803Z,74.23
2022-08-03T13:28:35.225Z,75.57
2022-08-03T13:29:34.798Z,75.35
2022-08-03T13:30:34.802Z,78.81
2022-08-03T13:31:34.800Z,75.65
2022-08-03T13:32:34.794Z,77.03
2022-08-03T13:33:34.904Z,76.62
2022-08-03T13:34:34.824Z,73.27
2022-08-03T13:35:34.810Z,70.66
2022-08-03T13:36:59.136Z,73.27
2022-08-03T13:37:34.813Z,74.72
2022-08-03T13:38:34.965Z,70.61
2022-08-03T13:39:34.843Z,70.54
2022-08-03T13:40:41.351Z,74.00
2022-08-03T13:41:34.880Z,71.84
2022-08-03T13:42:34.810Z,72.20
2022-08-03T13:43:34.850Z,72.29
2022-08-03T13:44:34.880Z,73.09
2022-08-03T13:45:34.850Z,73.45
2022-08-03T13:46:34.868Z,72.16
2022-08-03T13:47:34.847Z,74.57
2022-08-03T13:48:34.891Z,71.99
2022-08-03T13:49:34.840Z,74.73
2022-08-03T13:50:37.565Z,70.96
2022-08-03T13:51:34.904Z,72.73
2022-08-03T13:52:34.907Z,72.09
2022-08-03T13:53:34.918Z,75.78
2022-08-03T13:54:34.853Z,75.40
2022-08-03T13:55:34.853Z,77.44
2022-08-03T13:56:34.928Z,74.12
2022-08-03T13:58:11.771Z,73.36
2022-08-03T13:58:35.306Z,75.16
2022-08-03T13:59:34.875Z,74.16
2022-08-03T14:00:34.878Z,77.65
2022-08-03T14:01:54.259Z,80.38
2022-08-03T14:02:34.918Z,73.62
2022-08-03T14:03:34.905Z,76.92
2022-08-03T14:04:34.883Z,74.46
2022-08-03T14:05:34.876Z,73.03
2022-08-03T14:06:34.922Z,76.74
2022-08-03T14:07:34.880Z,75.89
2022-08-03T14:08:35.440Z,76.45
2022-08-03T14:09:34.931Z,75.27
2022-08-03T14:10:34.931Z,76.61
2022-08-03T14:12:07.337Z,78.66
2022-08-03T14:12:34.943Z,79.97
2022-08-03T14:13:34.944Z,75.10
2022-08-03T14:14:35.027Z,76.01
2022-08-03T14:15:38.158Z,74.58
2022-08-03T14:16:34.914Z,73.82
2022-08-03T14:17:42.178Z,74.03
2022-08-03T14:18:34.931Z,79.91
2022-08-03T14:19:52.689Z,80.76
2022-08-03T14:20:37.912Z,74.96
2022-08-03T14:21:34.952Z,75.59
2022-08-03T14:22:35.000Z,79.05
2022-08-03T14:23:35.044Z,79.06
2022-08-03T14:24:35.005Z,75.11
2022-08-03T14:25:44.417Z,77.27
2022-08-03T14:26:35.033Z,77.09
2022-08-03T14:27:35.066Z,76.93
2022-08-03T14:28:35.008Z,76.81
2022-08-03T14:29:35.001Z,79.22
2022-08-03T14:30:35.117Z,77.42
2022-08-03T14:32:11.826Z,77.18
2022-08-03T14:32:35.039Z,76.77
2022-08-03T14:33:35.084Z,76.15
2022-08-03T14:34:35.050Z,77.05
2022-08-03T14:35:34.990Z,75.40
2022-08-03T14:36:35.008Z,75.96
2022-08-03T14:37:35.072Z,75.08
2022-08-03T14:38:34.990Z,75.20
2022-08-03T14:40:00.742Z,75.46
2022-08-03T14:40:34.972Z,76.55
2022-08-03T14:41:34.998Z,75.48
2022-08-03T14:42:34.981Z,78.60
2022-08-03T14:43:34.997Z,75.86
2022-08-03T14:44:35.066Z,75.40
2022-08-03T14:45:35.092Z,75.96
2022-08-03T14:46:34.990Z,76.51
2022-08-03T14:49:02.222Z,75.67
2022-08-03T14:50:31.790Z,76.17
2022-08-03T14:50:32.908Z,78.18
2022-08-03T14:50:42.101Z,76.01
2022-08-03T14:51:51.344Z,76.18
2022-08-03T14:52:35.052Z,78.87
2022-08-03T14:53:35.098Z,79.29
2022-08-03T14:54:35.033Z,80.26
2022-08-03T14:55:38.755Z,83.30
2022-08-03T14:56:35.028Z,82.47
2022-08-03T14:57:35.025Z,81.00
2022-08-03T14:58:35.046Z,78.02
2022-08-03T14:59:56.708Z,82.74
2022-08-03T15:00:35.040Z,83.76
2022-08-03T15:02:03.194Z,78.82
2022-08-03T15:02:35.087Z,83.90
2022-08-03T15:03:35.066Z,78.10
2022-08-03T15:04:35.023Z,79.75
2022-08-03T15:05:35.528Z,79.97
2022-08-03T15:06:35.126Z,80.98
2022-08-03T15:07:35.120Z,82.33
2022-08-03T15:08:35.080Z,80.72
2022-08-03T15:09:35.039Z,77.34
2022-08-03T15:10:40.532Z,76.39
2022-08-03T15:11:35.103Z,81.52
2022-08-03T15:12:35.073Z,77.14
2022-08-03T15:13:35.061Z,78.15
2022-08-03T15:14:35.106Z,78.63
2022-08-03T15:15:35.109Z,78.81
2022-08-03T15:16:35.083Z,81.01
2022-08-03T15:17:35.059Z,82.12
2022-08-03T15:18:35.102Z,83.99
2022-08-03T15:20:01.317Z,80.87
2022-08-03T15:20:43.995Z,77.63
2022-08-03T15:21:46.652Z,77.39
2022-08-03T15:22:35.256Z,77.15
2022-08-03T15:23:35.167Z,77.00
2022-08-03T15:24:35.099Z,76.52
2022-08-03T15:26:04.113Z,76.62
2022-08-03T15:26:40.919Z,77.70
2022-08-03T15:27:35.176Z,76.64
2022-08-03T15:28:37.483Z,79.34
2022-08-03T15:30:05.989Z,78.26
2022-08-03T15:30:35.154Z,84.41
2022-08-03T15:31:35.186Z,84.29
2022-08-03T15:32:35.256Z,79.78
2022-08-03T15:33:35.412Z,80.52
2022-08-03T15:34:35.232Z,82.75
2022-08-03T15:35:35.215Z,82.36
2022-08-03T15:36:35.202Z,80.38
2022-08-03T15:37:35.211Z,77.59
2022-08-03T15:38:36.504Z,78.10
2022-08-03T15:39:35.220Z,79.95
2022-08-03T15:40:35.181Z,77.05
2022-08-03T15:41:35.159Z,78.25
2022-08-03T15:42:35.191Z,81.91
2022-08-03T15:43:35.245Z,83.44
2022-08-03T15:44:35.247Z,81.79
2022-08-03T15:45:36.613Z,78.91
2022-08-03T15:46:35.311Z,80.86
2022-08-03T15:47:35.205Z,77.65
2022-08-03T15:48:35.213Z,80.43
2022-08-03T15:49:35.206Z,81.71
2022-08-03T15:50:35.281Z,80.00
2022-08-03T15:51:35.218Z,82.87
2022-08-03T15:52:35.257Z,78.91
2022-08-03T15:53:35.241Z,77.94
2022-08-03T15:54:35.241Z,79.86
2022-08-03T15:55:35.285Z,79.89
2022-08-03T15:56:35.241Z,77.85
2022-08-03T15:59:04.357Z,80.40
2022-08-03T15:59:04.507Z,79.38
2022-08-03T15:59:35.283Z,79.45
2022-08-03T16:00:35.249Z,82.12
2022-08-03T16:01:35.362Z,83.91
2022-08-03T16:02:35.264Z,80.22
2022-08-03T16:03:35.285Z,79.70
2022-08-03T16:04:35.242Z,79.61
2022-08-03T16:05:35.252Z,80.93
2022-08-03T16:06:36.452Z,79.42
2022-08-03T16:07:35.265Z,83.74
2022-08-03T16:08:35.311Z,85.50
2022-08-03T16:09:43.329Z,80.02
2022-08-03T16:10:35.298Z,79.13
2022-08-03T16:11:35.280Z,78.34
2022-08-03T16:12:35.280Z,78.50
2022-08-03T16:14:13.514Z,79.24
2022-08-03T16:14:46.865Z,82.89
2022-08-03T16:15:38.590Z,82.60
2022-08-03T16:16:35.331Z,81.84
2022-08-03T16:17:35.348Z,77.94
2022-08-03T16:18:35.288Z,79.44
2022-08-03T16:19:35.649Z,79.11
2022-08-03T16:20:35.554Z,84.25
2022-08-03T16:21:38.644Z,79.33
2022-08-03T16:22:35.335Z,79.14
2022-08-03T16:23:35.338Z,83.13
2022-08-03T16:24:35.311Z,83.98
2022-08-03T16:25:35.361Z,79.44
2022-08-03T16:26:35.408Z,80.47
2022-08-03T16:27:37.076Z,83.69
2022-08-03T16:28:35.444Z,80.05
2022-08-03T16:29:35.426Z,78.80
2022-08-03T16:30:35.446Z,81.95
2022-08-03T16:31:35.433Z,83.56
2022-08-03T16:32:35.473Z,84.24
2022-08-03T16:33:35.429Z,80.11
2022-08-03T16:34:37.573Z,82.15
2022-08-03T16:35:35.446Z,83.22
2022-08-03T16:36:35.440Z,80.40
2022-08-03T16:37:38.763Z,84.84
2022-08-03T16:38:35.493Z,84.37
2022-08-03T16:39:35.593Z,86.56
2022-08-03T16:40:35.529Z,82.15
2022-08-03T16:41:53.532Z,85.72
2022-08-03T16:42:35.499Z,86.35
2022-08-03T16:43:35.551Z,83.99
2022-08-03T16:44:35.569Z,80.37
2022-08-03T16:45:35.497Z,79.93
2022-08-03T16:46:35.484Z,79.81
2022-08-03T16:47:35.545Z,82.47
2022-08-03T16:48:35.496Z,79.25
2022-08-03T16:49:53.858Z,86.00
2022-08-03T16:50:35.536Z,81.64
2022-08-03T16:51:40.327Z,80.81
2022-08-03T16:52:35.571Z,90.04
2022-08-03T16:54:05.177Z,94.07
2022-08-03T16:54:35.510Z,79.62
2022-08-03T16:55:43.232Z,82.09
2022-08-03T16:56:36.303Z,85.68
2022-08-03T16:57:57.828Z,85.96
2022-08-03T16:58:42.161Z,89.26
2022-08-03T16:59:36.454Z,91.59
2022-08-03T17:00:41.779Z,88.75
2022-08-03T17:01:35.691Z,81.36
2022-08-03T17:02:35.696Z,87.93
